KSLO/SLO METAR and TAF weather

Enter ICAO airport designator
Station Type Date Time Source
KSLO METAR 2024/04/18 08:15 UTC NOAA

KSLO 180815Z AUTO 09005KT 10SM CLR 15/09 A3001 RMK AO2 T01530085


Station Type Date Time Source
KSLO Decoded METAR 2024/04/18 08:15 UTC NOAA

Salem, Salem-Leckrone Airport, IL, United States (KSLO) 38-38-34N 088-57-51W 174M
Apr 18, 2024 - 04:15 AM EDT / 2024.04.18 0815 UTC
Wind: from the E (090 degrees) at 6 MPH (5 KT):0
Visibility: 10 mile(s):0
Sky conditions: clear
Temperature: 59.5 F (15.3 C)
Dew Point: 47.3 F (8.5 C)
Relative Humidity: 63%
Pressure (altimeter): 30.01 in. Hg (1016 hPa)
ob: KSLO 180815Z AUTO 09005KT 10SM CLR 15/09 A3001 RMK AO2 T01530085
cycle: 8

Station Type Date Time Source
KSLO TAF UTC NOAA

Error!

Example: see airport list